sensor_id;sensor_type;location;lat;lon;timestamp;P1;durP1;ratioP1;P2;durP2;ratioP2
51758;SDS011;66684;47.568;18.734;2024-01-16T00:01:44;3.78;;;1.50;;
51758;SDS011;66684;47.568;18.734;2024-01-16T00:04:10;2.83;;;1.62;;
51758;SDS011;66684;47.568;18.734;2024-01-16T00:06:40;2.50;;;1.40;;
51758;SDS011;66684;47.568;18.734;2024-01-16T00:09:06;3.42;;;1.37;;
51758;SDS011;66684;47.568;18.734;2024-01-16T00:11:33;3.33;;;1.58;;
51758;SDS011;66684;47.568;18.734;2024-01-16T00:13:59;2.20;;;1.12;;
51758;SDS011;66684;47.568;18.734;2024-01-16T00:16:24;3.95;;;1.50;;
51758;SDS011;66684;47.568;18.734;2024-01-16T00:18:50;3.15;;;1.60;;
51758;SDS011;66684;47.568;18.734;2024-01-16T00:21:16;2.87;;;1.52;;
51758;SDS011;66684;47.568;18.734;2024-01-16T00:23:42;3.67;;;1.30;;
51758;SDS011;66684;47.568;18.734;2024-01-16T00:26:08;3.17;;;1.50;;
51758;SDS011;66684;47.568;18.734;2024-01-16T00:28:35;2.85;;;1.40;;
51758;SDS011;66684;47.568;18.734;2024-01-16T00:31:01;2.17;;;1.35;;
51758;SDS011;66684;47.568;18.734;2024-01-16T00:33:26;3.22;;;1.33;;
51758;SDS011;66684;47.568;18.734;2024-01-16T00:35:53;1.98;;;1.20;;
51758;SDS011;66684;47.568;18.734;2024-01-16T00:38:19;2.75;;;1.30;;
51758;SDS011;66684;47.568;18.734;2024-01-16T00:40:45;2.97;;;1.30;;
51758;SDS011;66684;47.568;18.734;2024-01-16T00:43:11;3.17;;;1.35;;
51758;SDS011;66684;47.568;18.734;2024-01-16T00:45:38;2.37;;;1.12;;
51758;SDS011;66684;47.568;18.734;2024-01-16T00:48:04;3.42;;;1.45;;
51758;SDS011;66684;47.568;18.734;2024-01-16T00:50:31;3.72;;;2.03;;
51758;SDS011;66684;47.568;18.734;2024-01-16T00:52:57;2.67;;;1.50;;
51758;SDS011;66684;47.568;18.734;2024-01-16T00:55:23;2.17;;;1.40;;
51758;SDS011;66684;47.568;18.734;2024-01-16T00:57:49;2.85;;;1.50;;
51758;SDS011;66684;47.568;18.734;2024-01-16T01:00:15;3.17;;;1.65;;
51758;SDS011;66684;47.568;18.734;2024-01-16T01:02:41;2.80;;;1.30;;
51758;SDS011;66684;47.568;18.734;2024-01-16T01:05:07;2.30;;;1.42;;
51758;SDS011;66684;47.568;18.734;2024-01-16T01:07:33;4.70;;;1.95;;
51758;SDS011;66684;47.568;18.734;2024-01-16T01:09:59;2.58;;;1.20;;
51758;SDS011;66684;47.568;18.734;2024-01-16T01:12:25;4.00;;;1.70;;
51758;SDS011;66684;47.568;18.734;2024-01-16T01:14:51;4.03;;;1.75;;
51758;SDS011;66684;47.568;18.734;2024-01-16T01:17:16;4.20;;;1.87;;
51758;SDS011;66684;47.568;18.734;2024-01-16T01:19:42;3.08;;;1.37;;
51758;SDS011;66684;47.568;18.734;2024-01-16T01:22:08;3.22;;;2.00;;
51758;SDS011;66684;47.568;18.734;2024-01-16T01:24:34;3.65;;;1.55;;
51758;SDS011;66684;47.568;18.734;2024-01-16T01:27:00;3.40;;;1.55;;
51758;SDS011;66684;47.568;18.734;2024-01-16T01:29:26;5.35;;;1.62;;
51758;SDS011;66684;47.568;18.734;2024-01-16T01:31:52;3.72;;;1.90;;
51758;SDS011;66684;47.568;18.734;2024-01-16T01:34:17;3.42;;;1.85;;
51758;SDS011;66684;47.568;18.734;2024-01-16T01:36:43;3.12;;;1.90;;
51758;SDS011;66684;47.568;18.734;2024-01-16T01:39:09;3.47;;;1.60;;
51758;SDS011;66684;47.568;18.734;2024-01-16T01:41:36;4.03;;;2.00;;
51758;SDS011;66684;47.568;18.734;2024-01-16T01:44:02;4.22;;;1.80;;
51758;SDS011;66684;47.568;18.734;2024-01-16T01:46:28;3.45;;;2.00;;
51758;SDS011;66684;47.568;18.734;2024-01-16T01:48:56;5.35;;;1.95;;
51758;SDS011;66684;47.568;18.734;2024-01-16T01:51:22;3.22;;;1.92;;
51758;SDS011;66684;47.568;18.734;2024-01-16T01:53:48;3.12;;;1.90;;
51758;SDS011;66684;47.568;18.734;2024-01-16T01:56:17;4.10;;;2.00;;
51758;SDS011;66684;47.568;18.734;2024-01-16T01:58:44;5.12;;;1.70;;
51758;SDS011;66684;47.568;18.734;2024-01-16T02:01:12;4.47;;;1.80;;
51758;SDS011;66684;47.568;18.734;2024-01-16T02:03:43;3.35;;;2.28;;
51758;SDS011;66684;47.568;18.734;2024-01-16T02:06:10;3.47;;;1.92;;
51758;SDS011;66684;47.568;18.734;2024-01-16T02:08:42;3.28;;;1.80;;
51758;SDS011;66684;47.568;18.734;2024-01-16T02:11:08;3.70;;;2.05;;
51758;SDS011;66684;47.568;18.734;2024-01-16T02:13:35;3.58;;;2.12;;
51758;SDS011;66684;47.568;18.734;2024-01-16T02:16:01;4.95;;;2.15;;
51758;SDS011;66684;47.568;18.734;2024-01-16T02:18:29;4.35;;;2.78;;
51758;SDS011;66684;47.568;18.734;2024-01-16T02:20:59;3.62;;;2.10;;
51758;SDS011;66684;47.568;18.734;2024-01-16T02:23:31;3.62;;;2.20;;
51758;SDS011;66684;47.568;18.734;2024-01-16T02:25:57;5.25;;;2.47;;
51758;SDS011;66684;47.568;18.734;2024-01-16T02:28:23;4.60;;;2.97;;
51758;SDS011;66684;47.568;18.734;2024-01-16T02:30:49;3.58;;;2.35;;
51758;SDS011;66684;47.568;18.734;2024-01-16T02:33:15;3.55;;;2.45;;
51758;SDS011;66684;47.568;18.734;2024-01-16T02:35:41;4.72;;;2.72;;
51758;SDS011;66684;47.568;18.734;2024-01-16T02:38:06;5.05;;;2.62;;
51758;SDS011;66684;47.568;18.734;2024-01-16T02:40:32;4.00;;;2.60;;
51758;SDS011;66684;47.568;18.734;2024-01-16T02:42:58;5.03;;;2.78;;
51758;SDS011;66684;47.568;18.734;2024-01-16T02:45:24;4.60;;;2.83;;
51758;SDS011;66684;47.568;18.734;2024-01-16T02:47:50;4.68;;;2.75;;
51758;SDS011;66684;47.568;18.734;2024-01-16T02:50:16;4.50;;;2.47;;
51758;SDS011;66684;47.568;18.734;2024-01-16T02:52:42;4.90;;;3.08;;
51758;SDS011;66684;47.568;18.734;2024-01-16T02:55:08;5.03;;;3.05;;
51758;SDS011;66684;47.568;18.734;2024-01-16T02:57:34;4.95;;;2.97;;
51758;SDS011;66684;47.568;18.734;2024-01-16T03:00:00;4.28;;;2.65;;
51758;SDS011;66684;47.568;18.734;2024-01-16T03:02:26;6.32;;;2.92;;
51758;SDS011;66684;47.568;18.734;2024-01-16T03:04:52;5.60;;;2.97;;
51758;SDS011;66684;47.568;18.734;2024-01-16T03:07:17;4.90;;;3.00;;
51758;SDS011;66684;47.568;18.734;2024-01-16T03:09:43;6.07;;;3.25;;
51758;SDS011;66684;47.568;18.734;2024-01-16T03:12:09;4.78;;;2.97;;
51758;SDS011;66684;47.568;18.734;2024-01-16T03:14:35;4.78;;;3.12;;
51758;SDS011;66684;47.568;18.734;2024-01-16T03:17:02;5.70;;;3.40;;
51758;SDS011;66684;47.568;18.734;2024-01-16T03:19:29;6.20;;;3.45;;
51758;SDS011;66684;47.568;18.734;2024-01-16T03:21:55;6.25;;;3.30;;
51758;SDS011;66684;47.568;18.734;2024-01-16T03:24:21;6.37;;;3.35;;
51758;SDS011;66684;47.568;18.734;2024-01-16T03:26:47;4.93;;;3.00;;
51758;SDS011;66684;47.568;18.734;2024-01-16T03:29:13;6.68;;;3.15;;
51758;SDS011;66684;47.568;18.734;2024-01-16T03:31:39;5.22;;;3.08;;
51758;SDS011;66684;47.568;18.734;2024-01-16T03:34:05;6.78;;;3.62;;
51758;SDS011;66684;47.568;18.734;2024-01-16T03:36:31;6.87;;;3.37;;
51758;SDS011;66684;47.568;18.734;2024-01-16T03:38:57;6.22;;;3.53;;
51758;SDS011;66684;47.568;18.734;2024-01-16T03:41:22;5.72;;;3.30;;
51758;SDS011;66684;47.568;18.734;2024-01-16T03:43:48;6.57;;;3.72;;
51758;SDS011;66684;47.568;18.734;2024-01-16T03:46:14;7.32;;;3.50;;
51758;SDS011;66684;47.568;18.734;2024-01-16T03:48:40;7.22;;;3.87;;
51758;SDS011;66684;47.568;18.734;2024-01-16T03:51:06;7.65;;;3.08;;
51758;SDS011;66684;47.568;18.734;2024-01-16T03:53:34;6.70;;;3.45;;
51758;SDS011;66684;47.568;18.734;2024-01-16T03:56:00;6.10;;;3.30;;
51758;SDS011;66684;47.568;18.734;2024-01-16T03:58:26;7.70;;;3.17;;
51758;SDS011;66684;47.568;18.734;2024-01-16T04:00:52;5.72;;;3.30;;
51758;SDS011;66684;47.568;18.734;2024-01-16T04:03:18;5.30;;;3.00;;
51758;SDS011;66684;47.568;18.734;2024-01-16T04:05:44;5.60;;;3.33;;
51758;SDS011;66684;47.568;18.734;2024-01-16T04:08:10;7.43;;;2.90;;
51758;SDS011;66684;47.568;18.734;2024-01-16T04:10:38;11.80;;;2.92;;
51758;SDS011;66684;47.568;18.734;2024-01-16T04:13:03;5.60;;;3.40;;
51758;SDS011;66684;47.568;18.734;2024-01-16T04:15:29;4.62;;;2.95;;
51758;SDS011;66684;47.568;18.734;2024-01-16T04:17:55;4.78;;;2.70;;
51758;SDS011;66684;47.568;18.734;2024-01-16T04:20:21;5.32;;;3.05;;
51758;SDS011;66684;47.568;18.734;2024-01-16T04:22:47;5.40;;;3.03;;
51758;SDS011;66684;47.568;18.734;2024-01-16T04:25:13;7.40;;;2.97;;
51758;SDS011;66684;47.568;18.734;2024-01-16T04:27:40;5.55;;;2.90;;
51758;SDS011;66684;47.568;18.734;2024-01-16T04:30:06;3.67;;;2.65;;
51758;SDS011;66684;47.568;18.734;2024-01-16T04:32:33;5.05;;;3.00;;
51758;SDS011;66684;47.568;18.734;2024-01-16T04:35:00;5.80;;;2.67;;
51758;SDS011;66684;47.568;18.734;2024-01-16T04:37:25;6.97;;;2.90;;
51758;SDS011;66684;47.568;18.734;2024-01-16T04:39:51;5.82;;;2.92;;
51758;SDS011;66684;47.568;18.734;2024-01-16T04:42:17;6.10;;;2.90;;
51758;SDS011;66684;47.568;18.734;2024-01-16T04:44:43;4.07;;;2.70;;
51758;SDS011;66684;47.568;18.734;2024-01-16T04:47:09;5.43;;;2.47;;
51758;SDS011;66684;47.568;18.734;2024-01-16T04:49:35;4.65;;;2.42;;
51758;SDS011;66684;47.568;18.734;2024-01-16T04:52:01;5.47;;;2.45;;
51758;SDS011;66684;47.568;18.734;2024-01-16T04:54:28;5.90;;;2.58;;
51758;SDS011;66684;47.568;18.734;2024-01-16T04:56:54;5.68;;;2.33;;
51758;SDS011;66684;47.568;18.734;2024-01-16T04:59:20;4.80;;;2.53;;
51758;SDS011;66684;47.568;18.734;2024-01-16T05:01:46;3.72;;;2.47;;
51758;SDS011;66684;47.568;18.734;2024-01-16T05:04:12;5.72;;;2.25;;
51758;SDS011;66684;47.568;18.734;2024-01-16T05:06:37;4.60;;;2.60;;
51758;SDS011;66684;47.568;18.734;2024-01-16T05:09:04;5.87;;;2.60;;
51758;SDS011;66684;47.568;18.734;2024-01-16T05:11:30;4.32;;;2.47;;
51758;SDS011;66684;47.568;18.734;2024-01-16T05:13:56;4.75;;;2.80;;
51758;SDS011;66684;47.568;18.734;2024-01-16T05:16:24;4.78;;;2.40;;
51758;SDS011;66684;47.568;18.734;2024-01-16T05:18:51;4.05;;;2.28;;
51758;SDS011;66684;47.568;18.734;2024-01-16T05:21:17;5.85;;;3.10;;
51758;SDS011;66684;47.568;18.734;2024-01-16T05:23:43;5.15;;;2.40;;
51758;SDS011;66684;47.568;18.734;2024-01-16T05:26:09;5.28;;;2.70;;
51758;SDS011;66684;47.568;18.734;2024-01-16T05:28:35;5.97;;;2.35;;
51758;SDS011;66684;47.568;18.734;2024-01-16T05:31:01;5.20;;;2.62;;
51758;SDS011;66684;47.568;18.734;2024-01-16T05:33:26;5.87;;;2.40;;
51758;SDS011;66684;47.568;18.734;2024-01-16T05:35:52;7.15;;;2.42;;
51758;SDS011;66684;47.568;18.734;2024-01-16T05:38:18;4.47;;;2.53;;
51758;SDS011;66684;47.568;18.734;2024-01-16T05:40:44;4.72;;;2.70;;
51758;SDS011;66684;47.568;18.734;2024-01-16T05:43:10;4.87;;;2.37;;
51758;SDS011;66684;47.568;18.734;2024-01-16T05:45:36;4.37;;;2.28;;
51758;SDS011;66684;47.568;18.734;2024-01-16T05:48:02;5.85;;;2.50;;
51758;SDS011;66684;47.568;18.734;2024-01-16T05:50:28;4.75;;;2.22;;
51758;SDS011;66684;47.568;18.734;2024-01-16T05:52:55;6.65;;;2.45;;
51758;SDS011;66684;47.568;18.734;2024-01-16T05:55:21;4.28;;;2.30;;
51758;SDS011;66684;47.568;18.734;2024-01-16T05:57:47;4.65;;;2.30;;
51758;SDS011;66684;47.568;18.734;2024-01-16T06:00:13;8.43;;;2.45;;
51758;SDS011;66684;47.568;18.734;2024-01-16T06:02:39;7.05;;;2.45;;
51758;SDS011;66684;47.568;18.734;2024-01-16T06:05:06;13.00;;;2.85;;
51758;SDS011;66684;47.568;18.734;2024-01-16T06:07:32;6.35;;;2.60;;
51758;SDS011;66684;47.568;18.734;2024-01-16T06:09:58;3.90;;;2.55;;
51758;SDS011;66684;47.568;18.734;2024-01-16T06:12:24;8.75;;;3.28;;
51758;SDS011;66684;47.568;18.734;2024-01-16T06:14:50;7.68;;;2.83;;
51758;SDS011;66684;47.568;18.734;2024-01-16T06:17:16;6.65;;;2.70;;
51758;SDS011;66684;47.568;18.734;2024-01-16T06:19:42;5.15;;;2.50;;
51758;SDS011;66684;47.568;18.734;2024-01-16T06:22:07;4.53;;;2.80;;
51758;SDS011;66684;47.568;18.734;2024-01-16T06:24:34;7.22;;;3.05;;
51758;SDS011;66684;47.568;18.734;2024-01-16T06:27:05;6.80;;;2.72;;
51758;SDS011;66684;47.568;18.734;2024-01-16T06:29:34;5.43;;;2.80;;
51758;SDS011;66684;47.568;18.734;2024-01-16T06:32:00;7.00;;;3.17;;
51758;SDS011;66684;47.568;18.734;2024-01-16T06:34:27;5.60;;;2.62;;
51758;SDS011;66684;47.568;18.734;2024-01-16T06:36:53;5.85;;;2.92;;
51758;SDS011;66684;47.568;18.734;2024-01-16T06:39:19;6.75;;;2.83;;
51758;SDS011;66684;47.568;18.734;2024-01-16T06:41:45;8.73;;;2.80;;
51758;SDS011;66684;47.568;18.734;2024-01-16T06:44:10;8.32;;;2.42;;
51758;SDS011;66684;47.568;18.734;2024-01-16T06:46:37;4.72;;;2.33;;
51758;SDS011;66684;47.568;18.734;2024-01-16T06:49:03;7.35;;;2.72;;
51758;SDS011;66684;47.568;18.734;2024-01-16T06:51:28;4.75;;;2.30;;
51758;SDS011;66684;47.568;18.734;2024-01-16T06:53:54;4.85;;;2.55;;
51758;SDS011;66684;47.568;18.734;2024-01-16T06:56:20;6.37;;;2.15;;
51758;SDS011;66684;47.568;18.734;2024-01-16T06:58:46;5.55;;;2.20;;
51758;SDS011;66684;47.568;18.734;2024-01-16T07:01:12;4.65;;;2.00;;
51758;SDS011;66684;47.568;18.734;2024-01-16T07:03:38;5.32;;;2.53;;
51758;SDS011;66684;47.568;18.734;2024-01-16T07:06:04;3.92;;;2.08;;
51758;SDS011;66684;47.568;18.734;2024-01-16T07:08:30;4.25;;;1.80;;
51758;SDS011;66684;47.568;18.734;2024-01-16T07:10:56;3.72;;;1.98;;
51758;SDS011;66684;47.568;18.734;2024-01-16T07:13:22;4.30;;;2.10;;
51758;SDS011;66684;47.568;18.734;2024-01-16T07:15:47;7.22;;;1.87;;
51758;SDS011;66684;47.568;18.734;2024-01-16T07:18:14;4.18;;;1.90;;
51758;SDS011;66684;47.568;18.734;2024-01-16T07:20:40;4.15;;;2.25;;
51758;SDS011;66684;47.568;18.734;2024-01-16T07:23:06;5.87;;;2.85;;
51758;SDS011;66684;47.568;18.734;2024-01-16T07:25:32;5.30;;;2.37;;
51758;SDS011;66684;47.568;18.734;2024-01-16T07:27:58;5.75;;;2.12;;
51758;SDS011;66684;47.568;18.734;2024-01-16T07:30:24;5.37;;;2.30;;
51758;SDS011;66684;47.568;18.734;2024-01-16T07:32:50;6.07;;;2.58;;
51758;SDS011;66684;47.568;18.734;2024-01-16T07:35:16;5.47;;;2.45;;
51758;SDS011;66684;47.568;18.734;2024-01-16T07:37:42;5.40;;;2.30;;
51758;SDS011;66684;47.568;18.734;2024-01-16T07:40:08;4.57;;;1.95;;
51758;SDS011;66684;47.568;18.734;2024-01-16T07:42:35;3.58;;;1.70;;
51758;SDS011;66684;47.568;18.734;2024-01-16T07:45:01;6.65;;;2.50;;
51758;SDS011;66684;47.568;18.734;2024-01-16T07:47:30;3.92;;;2.03;;
51758;SDS011;66684;47.568;18.734;2024-01-16T07:49:57;3.80;;;2.10;;
51758;SDS011;66684;47.568;18.734;2024-01-16T07:52:23;6.75;;;2.60;;
51758;SDS011;66684;47.568;18.734;2024-01-16T07:54:49;5.70;;;2.47;;
51758;SDS011;66684;47.568;18.734;2024-01-16T07:57:17;7.97;;;3.12;;
51758;SDS011;66684;47.568;18.734;2024-01-16T07:59:43;5.85;;;3.20;;
51758;SDS011;66684;47.568;18.734;2024-01-16T08:02:09;6.90;;;3.20;;
51758;SDS011;66684;47.568;18.734;2024-01-16T08:04:35;7.07;;;3.47;;
51758;SDS011;66684;47.568;18.734;2024-01-16T08:07:01;7.95;;;3.28;;
51758;SDS011;66684;47.568;18.734;2024-01-16T08:09:27;7.45;;;3.37;;
51758;SDS011;66684;47.568;18.734;2024-01-16T08:11:53;6.07;;;2.85;;
51758;SDS011;66684;47.568;18.734;2024-01-16T08:14:19;7.80;;;2.92;;
51758;SDS011;66684;47.568;18.734;2024-01-16T08:16:45;8.20;;;3.22;;
51758;SDS011;66684;47.568;18.734;2024-01-16T08:19:11;8.10;;;2.95;;
51758;SDS011;66684;47.568;18.734;2024-01-16T08:21:37;6.37;;;2.97;;
51758;SDS011;66684;47.568;18.734;2024-01-16T08:24:03;8.00;;;3.30;;
51758;SDS011;66684;47.568;18.734;2024-01-16T08:26:29;6.93;;;3.15;;
51758;SDS011;66684;47.568;18.734;2024-01-16T08:28:55;6.37;;;2.95;;
51758;SDS011;66684;47.568;18.734;2024-01-16T08:31:20;6.25;;;3.30;;
51758;SDS011;66684;47.568;18.734;2024-01-16T08:33:46;7.10;;;2.97;;
51758;SDS011;66684;47.568;18.734;2024-01-16T08:36:13;8.18;;;3.30;;
51758;SDS011;66684;47.568;18.734;2024-01-16T08:38:40;7.12;;;3.60;;
51758;SDS011;66684;47.568;18.734;2024-01-16T08:41:06;7.62;;;2.95;;
51758;SDS011;66684;47.568;18.734;2024-01-16T08:43:35;5.70;;;2.92;;
51758;SDS011;66684;47.568;18.734;2024-01-16T08:46:01;8.52;;;3.30;;
51758;SDS011;66684;47.568;18.734;2024-01-16T08:48:27;10.57;;;3.28;;
51758;SDS011;66684;47.568;18.734;2024-01-16T08:50:53;7.28;;;3.60;;
51758;SDS011;66684;47.568;18.734;2024-01-16T08:53:22;6.95;;;2.87;;
51758;SDS011;66684;47.568;18.734;2024-01-16T08:55:48;8.65;;;3.72;;
51758;SDS011;66684;47.568;18.734;2024-01-16T08:58:17;8.60;;;3.70;;
51758;SDS011;66684;47.568;18.734;2024-01-16T09:00:43;11.00;;;3.60;;
51758;SDS011;66684;47.568;18.734;2024-01-16T09:03:09;7.05;;;3.05;;
51758;SDS011;66684;47.568;18.734;2024-01-16T09:05:35;7.55;;;3.15;;
51758;SDS011;66684;47.568;18.734;2024-01-16T09:08:04;8.52;;;3.05;;
51758;SDS011;66684;47.568;18.734;2024-01-16T09:10:30;8.32;;;3.10;;
51758;SDS011;66684;47.568;18.734;2024-01-16T09:12:56;6.62;;;2.45;;
51758;SDS011;66684;47.568;18.734;2024-01-16T09:15:22;5.95;;;2.83;;
51758;SDS011;66684;47.568;18.734;2024-01-16T09:17:48;11.48;;;4.97;;
51758;SDS011;66684;47.568;18.734;2024-01-16T09:20:13;11.52;;;3.37;;
51758;SDS011;66684;47.568;18.734;2024-01-16T09:22:39;7.60;;;3.35;;
51758;SDS011;66684;47.568;18.734;2024-01-16T09:25:05;19.27;;;3.50;;
51758;SDS011;66684;47.568;18.734;2024-01-16T09:27:32;8.10;;;3.60;;
51758;SDS011;66684;47.568;18.734;2024-01-16T09:29:58;7.07;;;3.20;;
51758;SDS011;66684;47.568;18.734;2024-01-16T09:32:23;9.32;;;3.62;;
51758;SDS011;66684;47.568;18.734;2024-01-16T09:34:49;9.65;;;2.62;;
51758;SDS011;66684;47.568;18.734;2024-01-16T09:37:15;6.80;;;2.95;;
51758;SDS011;66684;47.568;18.734;2024-01-16T09:39:41;5.90;;;2.62;;
51758;SDS011;66684;47.568;18.734;2024-01-16T09:42:08;7.30;;;2.37;;
51758;SDS011;66684;47.568;18.734;2024-01-16T09:44:34;8.32;;;2.50;;
51758;SDS011;66684;47.568;18.734;2024-01-16T09:47:01;7.00;;;2.80;;
51758;SDS011;66684;47.568;18.734;2024-01-16T09:49:29;5.35;;;2.60;;
51758;SDS011;66684;47.568;18.734;2024-01-16T09:51:55;5.32;;;2.40;;
51758;SDS011;66684;47.568;18.734;2024-01-16T09:54:22;5.57;;;2.20;;
51758;SDS011;66684;47.568;18.734;2024-01-16T09:56:50;5.37;;;2.25;;
51758;SDS011;66684;47.568;18.734;2024-01-16T09:59:19;6.30;;;2.12;;
51758;SDS011;66684;47.568;18.734;2024-01-16T10:01:46;5.22;;;1.80;;
51758;SDS011;66684;47.568;18.734;2024-01-16T10:04:15;5.15;;;1.60;;
51758;SDS011;66684;47.568;18.734;2024-01-16T10:06:41;5.15;;;1.85;;
51758;SDS011;66684;47.568;18.734;2024-01-16T10:09:12;7.15;;;2.35;;
51758;SDS011;66684;47.568;18.734;2024-01-16T10:11:38;5.45;;;1.92;;
51758;SDS011;66684;47.568;18.734;2024-01-16T10:14:05;4.65;;;1.70;;
51758;SDS011;66684;47.568;18.734;2024-01-16T10:19:28;6.87;;;2.42;;
51758;SDS011;66684;47.568;18.734;2024-01-16T10:22:02;7.68;;;2.78;;
51758;SDS011;66684;47.568;18.734;2024-01-16T10:24:29;7.60;;;2.55;;
51758;SDS011;66684;47.568;18.734;2024-01-16T10:26:59;5.72;;;2.22;;
51758;SDS011;66684;47.568;18.734;2024-01-16T10:29:28;4.75;;;2.47;;
51758;SDS011;66684;47.568;18.734;2024-01-16T10:31:57;5.68;;;2.30;;
51758;SDS011;66684;47.568;18.734;2024-01-16T10:34:23;7.32;;;2.50;;
51758;SDS011;66684;47.568;18.734;2024-01-16T10:36:50;6.82;;;3.03;;
51758;SDS011;66684;47.568;18.734;2024-01-16T10:39:18;13.27;;;5.97;;
51758;SDS011;66684;47.568;18.734;2024-01-16T10:41:53;9.13;;;3.00;;
51758;SDS011;66684;47.568;18.734;2024-01-16T10:44:20;9.43;;;2.90;;
51758;SDS011;66684;47.568;18.734;2024-01-16T10:46:45;6.85;;;3.10;;
51758;SDS011;66684;47.568;18.734;2024-01-16T10:49:11;9.27;;;2.92;;
51758;SDS011;66684;47.568;18.734;2024-01-16T10:51:37;6.90;;;2.20;;
51758;SDS011;66684;47.568;18.734;2024-01-16T10:54:08;6.28;;;2.62;;
51758;SDS011;66684;47.568;18.734;2024-01-16T10:56:45;5.30;;;2.75;;
51758;SDS011;66684;47.568;18.734;2024-01-16T10:59:30;9.60;;;2.80;;
51758;SDS011;66684;47.568;18.734;2024-01-16T11:02:05;5.85;;;2.62;;
51758;SDS011;66684;47.568;18.734;2024-01-16T11:04:36;7.30;;;2.42;;
51758;SDS011;66684;47.568;18.734;2024-01-16T11:07:03;7.53;;;1.98;;
51758;SDS011;66684;47.568;18.734;2024-01-16T11:09:31;8.93;;;2.20;;
51758;SDS011;66684;47.568;18.734;2024-01-16T11:11:57;5.55;;;2.00;;
51758;SDS011;66684;47.568;18.734;2024-01-16T11:14:24;8.45;;;2.20;;
51758;SDS011;66684;47.568;18.734;2024-01-16T11:16:51;6.03;;;2.17;;
51758;SDS011;66684;47.568;18.734;2024-01-16T11:19:18;4.18;;;1.92;;
51758;SDS011;66684;47.568;18.734;2024-01-16T11:21:46;4.45;;;2.05;;
51758;SDS011;66684;47.568;18.734;2024-01-16T11:24:12;4.95;;;2.03;;
51758;SDS011;66684;47.568;18.734;2024-01-16T11:26:41;8.60;;;2.50;;
51758;SDS011;66684;47.568;18.734;2024-01-16T11:31:53;6.80;;;1.80;;
51758;SDS011;66684;47.568;18.734;2024-01-16T11:37:08;6.15;;;1.55;;
51758;SDS011;66684;47.568;18.734;2024-01-16T11:39:36;10.75;;;1.60;;
51758;SDS011;66684;47.568;18.734;2024-01-16T11:42:02;4.53;;;1.27;;
51758;SDS011;66684;47.568;18.734;2024-01-16T11:44:49;4.30;;;1.30;;
51758;SDS011;66684;47.568;18.734;2024-01-16T11:47:20;6.37;;;1.30;;
51758;SDS011;66684;47.568;18.734;2024-01-16T11:49:47;3.25;;;1.20;;
51758;SDS011;66684;47.568;18.734;2024-01-16T11:52:13;4.80;;;1.17;;
51758;SDS011;66684;47.568;18.734;2024-01-16T11:54:40;7.62;;;1.10;;
51758;SDS011;66684;47.568;18.734;2024-01-16T11:59:55;4.90;;;1.00;;
51758;SDS011;66684;47.568;18.734;2024-01-16T12:02:28;5.57;;;1.70;;
51758;SDS011;66684;47.568;18.734;2024-01-16T12:04:59;4.53;;;1.65;;
51758;SDS011;66684;47.568;18.734;2024-01-16T12:07:29;7.50;;;2.97;;
51758;SDS011;66684;47.568;18.734;2024-01-16T12:10:04;5.37;;;0.82;;
51758;SDS011;66684;47.568;18.734;2024-01-16T12:12:32;3.20;;;0.85;;
51758;SDS011;66684;47.568;18.734;2024-01-16T12:14:58;6.18;;;0.88;;
51758;SDS011;66684;47.568;18.734;2024-01-16T12:17:24;5.25;;;0.70;;
51758;SDS011;66684;47.568;18.734;2024-01-16T12:19:50;4.15;;;0.73;;
51758;SDS011;66684;47.568;18.734;2024-01-16T12:22:16;5.80;;;0.57;;
51758;SDS011;66684;47.568;18.734;2024-01-16T12:24:48;1.95;;;0.30;;
51758;SDS011;66684;47.568;18.734;2024-01-16T12:27:14;1.73;;;0.30;;
51758;SDS011;66684;47.568;18.734;2024-01-16T12:29:41;2.05;;;0.55;;
51758;SDS011;66684;47.568;18.734;2024-01-16T12:32:08;2.33;;;0.40;;
51758;SDS011;66684;47.568;18.734;2024-01-16T12:34:35;2.05;;;0.35;;
51758;SDS011;66684;47.568;18.734;2024-01-16T12:37:11;5.22;;;0.40;;
51758;SDS011;66684;47.568;18.734;2024-01-16T12:39:38;5.65;;;0.57;;
51758;SDS011;66684;47.568;18.734;2024-01-16T12:42:04;7.60;;;0.50;;
51758;SDS011;66684;47.568;18.734;2024-01-16T12:44:31;2.17;;;0.40;;
51758;SDS011;66684;47.568;18.734;2024-01-16T12:46:57;1.98;;;0.40;;
51758;SDS011;66684;47.568;18.734;2024-01-16T12:49:23;2.42;;;0.47;;
51758;SDS011;66684;47.568;18.734;2024-01-16T12:51:50;4.43;;;0.52;;
51758;SDS011;66684;47.568;18.734;2024-01-16T12:54:17;2.78;;;0.30;;
51758;SDS011;66684;47.568;18.734;2024-01-16T12:56:44;6.93;;;0.50;;
51758;SDS011;66684;47.568;18.734;2024-01-16T12:59:10;2.22;;;0.40;;
51758;SDS011;66684;47.568;18.734;2024-01-16T13:01:43;3.22;;;0.55;;
51758;SDS011;66684;47.568;18.734;2024-01-16T13:04:12;1.98;;;0.50;;
51758;SDS011;66684;47.568;18.734;2024-01-16T13:06:41;2.42;;;0.55;;
51758;SDS011;66684;47.568;18.734;2024-01-16T13:09:09;1.98;;;0.60;;
51758;SDS011;66684;47.568;18.734;2024-01-16T13:11:50;2.37;;;0.50;;
51758;SDS011;66684;47.568;18.734;2024-01-16T13:14:18;3.15;;;0.88;;
51758;SDS011;66684;47.568;18.734;2024-01-16T13:16:46;3.97;;;0.62;;
51758;SDS011;66684;47.568;18.734;2024-01-16T13:19:16;8.95;;;0.62;;
51758;SDS011;66684;47.568;18.734;2024-01-16T13:21:44;1.48;;;0.28;;
51758;SDS011;66684;47.568;18.734;2024-01-16T13:24:11;1.20;;;0.30;;
51758;SDS011;66684;47.568;18.734;2024-01-16T13:26:39;1.23;;;0.30;;
51758;SDS011;66684;47.568;18.734;2024-01-16T13:29:05;2.75;;;0.30;;
51758;SDS011;66684;47.568;18.734;2024-01-16T13:31:31;1.20;;;0.30;;
51758;SDS011;66684;47.568;18.734;2024-01-16T13:33:58;1.80;;;0.30;;
51758;SDS011;66684;47.568;18.734;2024-01-16T13:36:24;3.87;;;0.37;;
51758;SDS011;66684;47.568;18.734;2024-01-16T13:38:50;1.98;;;0.40;;
51758;SDS011;66684;47.568;18.734;2024-01-16T13:41:16;3.45;;;0.28;;
51758;SDS011;66684;47.568;18.734;2024-01-16T13:43:42;10.88;;;0.60;;
51758;SDS011;66684;47.568;18.734;2024-01-16T13:46:08;3.95;;;0.47;;
51758;SDS011;66684;47.568;18.734;2024-01-16T13:48:36;5.70;;;0.50;;
51758;SDS011;66684;47.568;18.734;2024-01-16T13:51:02;4.53;;;0.60;;
51758;SDS011;66684;47.568;18.734;2024-01-16T13:53:30;2.85;;;0.30;;
51758;SDS011;66684;47.568;18.734;2024-01-16T13:55:55;2.92;;;0.30;;
51758;SDS011;66684;47.568;18.734;2024-01-16T13:58:23;4.78;;;0.47;;
51758;SDS011;66684;47.568;18.734;2024-01-16T14:00:49;2.78;;;0.40;;
51758;SDS011;66684;47.568;18.734;2024-01-16T14:03:16;1.83;;;0.45;;
51758;SDS011;66684;47.568;18.734;2024-01-16T14:05:42;2.60;;;0.45;;
51758;SDS011;66684;47.568;18.734;2024-01-16T14:08:08;1.70;;;0.30;;
51758;SDS011;66684;47.568;18.734;2024-01-16T14:10:38;3.75;;;0.62;;
51758;SDS011;66684;47.568;18.734;2024-01-16T14:13:04;2.90;;;0.47;;
51758;SDS011;66684;47.568;18.734;2024-01-16T14:15:30;3.83;;;0.73;;
51758;SDS011;66684;47.568;18.734;2024-01-16T14:17:56;2.67;;;0.65;;
51758;SDS011;66684;47.568;18.734;2024-01-16T14:20:23;1.62;;;0.30;;
51758;SDS011;66684;47.568;18.734;2024-01-16T14:22:52;2.45;;;0.30;;
51758;SDS011;66684;47.568;18.734;2024-01-16T14:25:18;3.15;;;0.30;;
51758;SDS011;66684;47.568;18.734;2024-01-16T14:28:05;2.22;;;0.37;;
51758;SDS011;66684;47.568;18.734;2024-01-16T14:30:31;3.55;;;0.50;;
51758;SDS011;66684;47.568;18.734;2024-01-16T14:32:58;3.37;;;0.37;;
51758;SDS011;66684;47.568;18.734;2024-01-16T14:35:24;3.40;;;0.50;;
51758;SDS011;66684;47.568;18.734;2024-01-16T14:37:51;3.25;;;0.43;;
51758;SDS011;66684;47.568;18.734;2024-01-16T14:40:17;2.28;;;0.20;;
51758;SDS011;66684;47.568;18.734;2024-01-16T14:42:49;8.65;;;0.60;;